sensor_id;sensor_type;location;lat;lon;timestamp;pressure;altitude;pressure_sealevel;temperature;humidity
70434;BME280;57876;47.792;12.960;2023-07-20T00:01:32;96597.38;;;18.93;64.88
70434;BME280;57876;47.792;12.960;2023-07-20T00:03:56;96569.06;;;18.77;65.00
70434;BME280;57876;47.792;12.960;2023-07-20T00:06:22;96594.63;;;18.93;65.09
70434;BME280;57876;47.792;12.960;2023-07-20T00:08:48;96582.78;;;18.89;65.06
70434;BME280;57876;47.792;12.960;2023-07-20T00:11:12;96572.16;;;18.87;65.05
70434;BME280;57876;47.792;12.960;2023-07-20T00:13:37;96585.63;;;18.92;65.16
70434;BME280;57876;47.792;12.960;2023-07-20T00:16:02;96595.00;;;18.91;65.08
70434;BME280;57876;47.792;12.960;2023-07-20T00:18:26;96604.00;;;18.92;65.14
70434;BME280;57876;47.792;12.960;2023-07-20T00:20:50;96607.91;;;18.91;64.94
70434;BME280;57876;47.792;12.960;2023-07-20T00:23:15;96605.41;;;18.86;65.05
70434;BME280;57876;47.792;12.960;2023-07-20T00:25:39;96611.44;;;18.91;64.87
70434;BME280;57876;47.792;12.960;2023-07-20T00:28:04;96618.88;;;18.91;64.89
70434;BME280;57876;47.792;12.960;2023-07-20T00:30:28;96614.19;;;18.91;65.11
70434;BME280;57876;47.792;12.960;2023-07-20T00:32:53;96615.66;;;18.89;65.14
70434;BME280;57876;47.792;12.960;2023-07-20T00:35:17;96623.19;;;18.92;64.92
70434;BME280;57876;47.792;12.960;2023-07-20T00:37:41;96630.28;;;18.81;65.06
70434;BME280;57876;47.792;12.960;2023-07-20T00:40:06;96641.81;;;18.86;65.05
70434;BME280;57876;47.792;12.960;2023-07-20T00:42:34;96639.66;;;18.92;64.89
70434;BME280;57876;47.792;12.960;2023-07-20T00:44:58;96627.31;;;18.86;64.82
70434;BME280;57876;47.792;12.960;2023-07-20T00:47:23;96629.38;;;18.89;65.06
70434;BME280;57876;47.792;12.960;2023-07-20T00:49:48;96622.28;;;18.88;65.17
70434;BME280;57876;47.792;12.960;2023-07-20T00:52:13;96608.25;;;18.89;65.02
70434;BME280;57876;47.792;12.960;2023-07-20T00:54:38;96587.34;;;18.85;65.08
70434;BME280;57876;47.792;12.960;2023-07-20T00:57:04;96608.69;;;18.91;64.91
70434;BME280;57876;47.792;12.960;2023-07-20T00:59:29;96598.31;;;18.85;65.06
70434;BME280;57876;47.792;12.960;2023-07-20T01:01:53;96592.63;;;18.78;64.88
70434;BME280;57876;47.792;12.960;2023-07-20T01:04:18;96584.22;;;18.74;65.13
70434;BME280;57876;47.792;12.960;2023-07-20T01:07:10;96620.34;;;18.88;65.08
70434;BME280;57876;47.792;12.960;2023-07-20T01:14:46;96632.13;;;18.89;65.05
70434;BME280;57876;47.792;12.960;2023-07-20T01:17:10;96619.09;;;18.86;65.03
70434;BME280;57876;47.792;12.960;2023-07-20T01:19:36;96610.53;;;18.87;65.13
70434;BME280;57876;47.792;12.960;2023-07-20T01:24:50;96616.00;;;18.87;64.86
70434;BME280;57876;47.792;12.960;2023-07-20T01:30:16;96627.97;;;18.83;65.00
70434;BME280;57876;47.792;12.960;2023-07-20T01:32:47;96641.47;;;18.88;64.88
70434;BME280;57876;47.792;12.960;2023-07-20T01:35:13;96641.25;;;18.81;64.92
70434;BME280;57876;47.792;12.960;2023-07-20T01:37:43;96670.47;;;18.89;64.93
70434;BME280;57876;47.792;12.960;2023-07-20T01:40:09;96679.16;;;18.91;65.02
70434;BME280;57876;47.792;12.960;2023-07-20T01:42:34;96657.00;;;18.84;64.90
70434;BME280;57876;47.792;12.960;2023-07-20T01:44:59;96641.94;;;18.78;64.98
70434;BME280;57876;47.792;12.960;2023-07-20T01:47:23;96657.00;;;18.84;65.09
70434;BME280;57876;47.792;12.960;2023-07-20T01:49:47;96640.56;;;18.84;64.96
70434;BME280;57876;47.792;12.960;2023-07-20T01:52:12;96632.81;;;18.86;64.88
70434;BME280;57876;47.792;12.960;2023-07-20T01:54:36;96641.91;;;18.90;64.78
70434;BME280;57876;47.792;12.960;2023-07-20T01:57:01;96627.31;;;18.86;65.09
70434;BME280;57876;47.792;12.960;2023-07-20T01:59:25;96612.00;;;18.85;64.87
70434;BME280;57876;47.792;12.960;2023-07-20T02:01:50;96614.88;;;18.88;65.01
70434;BME280;57876;47.792;12.960;2023-07-20T02:04:14;96632.56;;;18.91;65.14
70434;BME280;57876;47.792;12.960;2023-07-20T02:06:39;96633.59;;;18.86;65.04
70434;BME280;57876;47.792;12.960;2023-07-20T02:09:03;96639.41;;;18.85;64.98
70434;BME280;57876;47.792;12.960;2023-07-20T02:11:28;96640.34;;;18.89;64.80
70434;BME280;57876;47.792;12.960;2023-07-20T02:13:52;96633.22;;;18.88;64.78
70434;BME280;57876;47.792;12.960;2023-07-20T02:16:16;96616.03;;;18.75;64.85
70434;BME280;57876;47.792;12.960;2023-07-20T02:18:41;96636.34;;;18.86;64.94
70434;BME280;57876;47.792;12.960;2023-07-20T02:21:05;96632.88;;;18.77;64.67
70434;BME280;57876;47.792;12.960;2023-07-20T02:23:30;96650.13;;;18.90;65.16
70434;BME280;57876;47.792;12.960;2023-07-20T02:25:55;96640.19;;;18.85;64.99
70434;BME280;57876;47.792;12.960;2023-07-20T02:28:20;96647.63;;;18.85;65.09
70434;BME280;57876;47.792;12.960;2023-07-20T02:30:44;96635.88;;;18.84;64.97
70434;BME280;57876;47.792;12.960;2023-07-20T02:33:08;96628.88;;;18.75;64.85
70434;BME280;57876;47.792;12.960;2023-07-20T02:35:33;96624.81;;;18.81;64.93
70434;BME280;57876;47.792;12.960;2023-07-20T02:37:57;96623.75;;;18.85;64.98
70434;BME280;57876;47.792;12.960;2023-07-20T02:40:22;96621.59;;;18.79;65.05
70434;BME280;57876;47.792;12.960;2023-07-20T02:42:47;96637.59;;;18.89;65.06
70434;BME280;57876;47.792;12.960;2023-07-20T02:45:11;96622.50;;;18.83;64.84
70434;BME280;57876;47.792;12.960;2023-07-20T02:47:36;96631.97;;;18.85;65.01
70434;BME280;57876;47.792;12.960;2023-07-20T02:50:00;96617.72;;;18.80;64.78
70434;BME280;57876;47.792;12.960;2023-07-20T02:52:27;96624.69;;;18.89;64.85
70434;BME280;57876;47.792;12.960;2023-07-20T02:54:53;96626.63;;;18.89;64.95
70434;BME280;57876;47.792;12.960;2023-07-20T02:57:17;96613.16;;;18.84;65.08
70434;BME280;57876;47.792;12.960;2023-07-20T02:59:42;96614.28;;;18.83;64.99
70434;BME280;57876;47.792;12.960;2023-07-20T03:02:06;96629.38;;;18.89;64.68
70434;BME280;57876;47.792;12.960;2023-07-20T03:04:33;96623.44;;;18.87;65.08
70434;BME280;57876;47.792;12.960;2023-07-20T03:06:58;96611.22;;;18.84;64.97
70434;BME280;57876;47.792;12.960;2023-07-20T03:09:24;96628.91;;;18.87;64.81
70434;BME280;57876;47.792;12.960;2023-07-20T03:11:49;96612.47;;;18.87;64.84
70434;BME280;57876;47.792;12.960;2023-07-20T03:14:14;96611.53;;;18.83;64.82
70434;BME280;57876;47.792;12.960;2023-07-20T03:16:38;96617.47;;;18.85;65.13
70434;BME280;57876;47.792;12.960;2023-07-20T03:19:03;96620.34;;;18.88;64.87
70434;BME280;57876;47.792;12.960;2023-07-20T03:21:30;96626.63;;;18.89;64.97
70434;BME280;57876;47.792;12.960;2023-07-20T03:23:55;96616.22;;;18.82;64.89
70434;BME280;57876;47.792;12.960;2023-07-20T03:26:19;96620.69;;;18.87;65.02
70434;BME280;57876;47.792;12.960;2023-07-20T03:28:44;96620.13;;;18.81;65.01
70434;BME280;57876;47.792;12.960;2023-07-20T03:31:08;96636.66;;;18.85;64.90
70434;BME280;57876;47.792;12.960;2023-07-20T03:33:34;96634.84;;;18.89;65.00
70434;BME280;57876;47.792;12.960;2023-07-20T03:35:58;96640.34;;;18.89;64.87
70434;BME280;57876;47.792;12.960;2023-07-20T03:38:23;96624.91;;;18.84;64.99
70434;BME280;57876;47.792;12.960;2023-07-20T03:40:52;96646.59;;;18.89;65.11
70434;BME280;57876;47.792;12.960;2023-07-20T03:43:17;96645.03;;;18.88;64.98
70434;BME280;57876;47.792;12.960;2023-07-20T03:45:42;96633.91;;;18.85;65.06
70434;BME280;57876;47.792;12.960;2023-07-20T03:48:06;96634.72;;;18.85;64.85
70434;BME280;57876;47.792;12.960;2023-07-20T03:50:31;96637.59;;;18.89;65.01
70434;BME280;57876;47.792;12.960;2023-07-20T03:52:55;96630.84;;;18.86;65.11
70434;BME280;57876;47.792;12.960;2023-07-20T03:55:19;96620.91;;;18.82;65.21
70434;BME280;57876;47.792;12.960;2023-07-20T03:57:44;96612.78;;;18.73;64.97
70434;BME280;57876;47.792;12.960;2023-07-20T04:00:09;96622.28;;;18.76;64.68
70434;BME280;57876;47.792;12.960;2023-07-20T04:02:33;96642.28;;;18.88;64.92
70434;BME280;57876;47.792;12.960;2023-07-20T04:04:58;96634.28;;;18.83;65.06
70434;BME280;57876;47.792;12.960;2023-07-20T04:07:23;96636.78;;;18.88;64.91
70434;BME280;57876;47.792;12.960;2023-07-20T04:09:47;96636.78;;;18.88;64.85
70434;BME280;57876;47.792;12.960;2023-07-20T04:12:12;96644.56;;;18.86;64.92
70434;BME280;57876;47.792;12.960;2023-07-20T04:14:36;96637.81;;;18.84;65.03
70434;BME280;57876;47.792;12.960;2023-07-20T04:17:00;96636.19;;;18.83;64.86
70434;BME280;57876;47.792;12.960;2023-07-20T04:19:25;96649.69;;;18.88;64.68
70434;BME280;57876;47.792;12.960;2023-07-20T04:21:49;96645.56;;;18.82;64.87
70434;BME280;57876;47.792;12.960;2023-07-20T04:24:14;96647.16;;;18.83;64.94
70434;BME280;57876;47.792;12.960;2023-07-20T04:26:38;96644.88;;;18.85;64.74
70434;BME280;57876;47.792;12.960;2023-07-20T04:29:03;96645.34;;;18.87;64.80
70434;BME280;57876;47.792;12.960;2023-07-20T04:31:28;96630.28;;;18.81;64.96
70434;BME280;57876;47.792;12.960;2023-07-20T04:33:52;96610.38;;;18.71;64.67
70434;BME280;57876;47.792;12.960;2023-07-20T04:36:17;96645.81;;;18.89;64.66
70434;BME280;57876;47.792;12.960;2023-07-20T04:38:43;96654.03;;;18.89;64.95
70434;BME280;57876;47.792;12.960;2023-07-20T04:41:07;96653.09;;;18.85;64.78
70434;BME280;57876;47.792;12.960;2023-07-20T04:43:32;96647.06;;;18.79;64.94
70434;BME280;57876;47.792;12.960;2023-07-20T04:45:56;96634.22;;;18.71;64.79
70434;BME280;57876;47.792;12.960;2023-07-20T04:48:21;96635.38;;;18.70;64.97
70434;BME280;57876;47.792;12.960;2023-07-20T04:50:45;96648.72;;;18.71;64.67
70434;BME280;57876;47.792;12.960;2023-07-20T04:53:10;96665.78;;;18.89;64.83
70434;BME280;57876;47.792;12.960;2023-07-20T04:55:36;96656.78;;;18.89;64.97
70434;BME280;57876;47.792;12.960;2023-07-20T04:58:01;96652.63;;;18.83;64.76
70434;BME280;57876;47.792;12.960;2023-07-20T05:00:25;96650.34;;;18.73;64.86
70434;BME280;57876;47.792;12.960;2023-07-20T05:02:49;96671.81;;;18.83;64.90
70434;BME280;57876;47.792;12.960;2023-07-20T05:05:18;96682.91;;;18.86;64.94
70434;BME280;57876;47.792;12.960;2023-07-20T05:07:42;96690.69;;;18.84;64.85
70434;BME280;57876;47.792;12.960;2023-07-20T05:10:07;96687.13;;;18.84;64.93
70434;BME280;57876;47.792;12.960;2023-07-20T05:12:32;96694.69;;;18.87;64.88
70434;BME280;57876;47.792;12.960;2023-07-20T05:14:56;96695.34;;;18.84;64.80
70434;BME280;57876;47.792;12.960;2023-07-20T05:17:20;96705.53;;;18.83;64.77
70434;BME280;57876;47.792;12.960;2023-07-20T05:19:45;96704.06;;;18.86;65.18
70434;BME280;57876;47.792;12.960;2023-07-20T05:22:13;96705.53;;;18.83;64.82
70434;BME280;57876;47.792;12.960;2023-07-20T05:24:37;96695.47;;;18.87;64.85
70434;BME280;57876;47.792;12.960;2023-07-20T05:27:02;96707.22;;;18.88;65.02
70434;BME280;57876;47.792;12.960;2023-07-20T05:29:27;96705.16;;;18.85;64.88
70434;BME280;57876;47.792;12.960;2023-07-20T05:31:52;96714.31;;;18.89;65.03
70434;BME280;57876;47.792;12.960;2023-07-20T05:34:16;96709.53;;;18.86;64.88
70434;BME280;57876;47.792;12.960;2023-07-20T05:37:12;96707.22;;;18.88;64.73
70434;BME280;57876;47.792;12.960;2023-07-20T05:39:36;96680.94;;;18.75;64.78
70434;BME280;57876;47.792;12.960;2023-07-20T05:42:01;96706.31;;;18.84;64.91
70434;BME280;57876;47.792;12.960;2023-07-20T05:44:25;96704.47;;;18.88;64.84
70434;BME280;57876;47.792;12.960;2023-07-20T05:46:49;96705.63;;;18.87;65.04
70434;BME280;57876;47.792;12.960;2023-07-20T05:49:14;96709.97;;;18.88;64.84
70434;BME280;57876;47.792;12.960;2023-07-20T05:51:38;96704.47;;;18.88;64.95
70434;BME280;57876;47.792;12.960;2023-07-20T05:54:03;96704.47;;;18.88;64.77
70434;BME280;57876;47.792;12.960;2023-07-20T05:56:27;96714.31;;;18.89;64.85
70434;BME280;57876;47.792;12.960;2023-07-20T05:58:51;96713.75;;;18.83;64.99
70434;BME280;57876;47.792;12.960;2023-07-20T06:01:16;96709.75;;;18.81;64.77
70434;BME280;57876;47.792;12.960;2023-07-20T06:03:42;96729.16;;;18.88;64.75
70434;BME280;57876;47.792;12.960;2023-07-20T06:06:06;96712.94;;;18.83;64.66
70434;BME280;57876;47.792;12.960;2023-07-20T06:08:33;96717.63;;;18.82;64.85
70434;BME280;57876;47.792;12.960;2023-07-20T06:10:57;96724.34;;;18.85;64.80
70434;BME280;57876;47.792;12.960;2023-07-20T06:13:22;96728.72;;;18.86;64.86
70434;BME280;57876;47.792;12.960;2023-07-20T06:15:47;96740.13;;;18.88;64.77
70434;BME280;57876;47.792;12.960;2023-07-20T06:18:11;96739.00;;;18.89;64.82
70434;BME280;57876;47.792;12.960;2023-07-20T06:20:36;96734.19;;;18.86;64.86
70434;BME280;57876;47.792;12.960;2023-07-20T06:23:03;96736.94;;;18.86;64.63
70434;BME280;57876;47.792;12.960;2023-07-20T06:25:28;96725.41;;;18.80;64.61
70434;BME280;57876;47.792;12.960;2023-07-20T06:27:52;96733.72;;;18.84;65.13
70434;BME280;57876;47.792;12.960;2023-07-20T06:30:18;96740.47;;;18.99;64.68
70434;BME280;57876;47.792;12.960;2023-07-20T06:32:42;96734.31;;;18.89;64.76
70434;BME280;57876;47.792;12.960;2023-07-20T06:35:07;96742.31;;;18.95;64.94
70434;BME280;57876;47.792;12.960;2023-07-20T06:37:32;96747.31;;;18.92;64.74
70434;BME280;57876;47.792;12.960;2023-07-20T06:39:57;96752.81;;;18.92;64.78
70434;BME280;57876;47.792;12.960;2023-07-20T06:42:21;96742.31;;;18.95;64.62
70434;BME280;57876;47.792;12.960;2023-07-20T06:44:45;96740.56;;;18.90;64.72
70434;BME280;57876;47.792;12.960;2023-07-20T06:47:10;96745.84;;;18.95;64.53
70434;BME280;57876;47.792;12.960;2023-07-20T06:49:34;96747.31;;;18.92;64.75
70434;BME280;57876;47.792;12.960;2023-07-20T06:51:59;96754.06;;;18.95;64.62
70434;BME280;57876;47.792;12.960;2023-07-20T06:54:23;96737.38;;;18.88;64.51
70434;BME280;57876;47.792;12.960;2023-07-20T06:56:48;96747.69;;;18.91;64.57
70434;BME280;57876;47.792;12.960;2023-07-20T06:59:12;96738.19;;;18.88;64.60
70434;BME280;57876;47.792;12.960;2023-07-20T07:01:37;96758.97;;;18.89;64.54
70434;BME280;57876;47.792;12.960;2023-07-20T07:04:01;96730.41;;;18.78;64.46
70434;BME280;57876;47.792;12.960;2023-07-20T07:06:26;96752.00;;;18.92;64.48
70434;BME280;57876;47.792;12.960;2023-07-20T07:08:52;96751.53;;;18.90;64.55
70434;BME280;57876;47.792;12.960;2023-07-20T07:11:16;96757.59;;;18.96;64.45
70434;BME280;57876;47.792;12.960;2023-07-20T07:13:41;96745.59;;;18.88;64.44
70434;BME280;57876;47.792;12.960;2023-07-20T07:16:05;96744.56;;;18.92;64.48
70434;BME280;57876;47.792;12.960;2023-07-20T07:18:29;96748.94;;;18.94;64.70
70434;BME280;57876;47.792;12.960;2023-07-20T07:20:59;96729.84;;;18.85;64.39
70434;BME280;57876;47.792;12.960;2023-07-20T07:23:23;96730.63;;;18.85;64.76
70434;BME280;57876;47.792;12.960;2023-07-20T07:25:48;96737.97;;;18.94;64.63
70434;BME280;57876;47.792;12.960;2023-07-20T07:28:12;96749.72;;;18.94;64.60
70434;BME280;57876;47.792;12.960;2023-07-20T07:30:37;96732.25;;;18.86;64.55
70434;BME280;57876;47.792;12.960;2023-07-20T07:33:02;96738.53;;;18.87;64.66
70434;BME280;57876;47.792;12.960;2023-07-20T07:35:26;96744.94;;;18.91;64.56
70434;BME280;57876;47.792;12.960;2023-07-20T07:37:51;96730.06;;;18.80;64.31
70434;BME280;57876;47.792;12.960;2023-07-20T07:40:15;96752.81;;;18.92;64.63
70434;BME280;57876;47.792;12.960;2023-07-20T07:42:39;96743.69;;;18.88;64.37
70434;BME280;57876;47.792;12.960;2023-07-20T07:45:04;96747.22;;;18.89;64.71
70434;BME280;57876;47.792;12.960;2023-07-20T07:47:29;96750.16;;;18.84;64.74
70434;BME280;57876;47.792;12.960;2023-07-20T07:49:53;96762.66;;;18.94;64.69
70434;BME280;57876;47.792;12.960;2023-07-20T07:52:18;96750.41;;;18.91;64.82
70434;BME280;57876;47.792;12.960;2023-07-20T07:54:42;96759.28;;;18.88;64.75
70434;BME280;57876;47.792;12.960;2023-07-20T07:57:07;96749.47;;;18.87;64.69
70434;BME280;57876;47.792;12.960;2023-07-20T07:59:31;96753.16;;;18.91;64.88
70434;BME280;57876;47.792;12.960;2023-07-20T08:02:00;96738.28;;;18.80;64.71
70434;BME280;57876;47.792;12.960;2023-07-20T08:04:24;96731.53;;;18.77;64.75
70434;BME280;57876;47.792;12.960;2023-07-20T08:06:49;96744.56;;;18.80;64.68
70434;BME280;57876;47.792;12.960;2023-07-20T08:09:13;96739.22;;;18.84;64.99
70434;BME280;57876;47.792;12.960;2023-07-20T08:11:39;96733.94;;;18.79;64.75
70434;BME280;57876;47.792;12.960;2023-07-20T08:14:03;96753.38;;;18.86;64.82
70434;BME280;57876;47.792;12.960;2023-07-20T08:16:28;96748.81;;;18.90;64.77
70434;BME280;57876;47.792;12.960;2023-07-20T08:18:52;96731.78;;;18.84;64.72
70434;BME280;57876;47.792;12.960;2023-07-20T08:21:17;96739.31;;;18.87;64.84
70434;BME280;57876;47.792;12.960;2023-07-20T08:23:41;96727.09;;;18.85;64.66
70434;BME280;57876;47.792;12.960;2023-07-20T08:26:06;96744.94;;;18.91;64.90
70434;BME280;57876;47.792;12.960;2023-07-20T08:28:30;96751.91;;;18.88;64.74
70434;BME280;57876;47.792;12.960;2023-07-20T08:30:55;96748.13;;;18.93;64.74
70434;BME280;57876;47.792;12.960;2023-07-20T08:33:20;96755.91;;;19.03;64.78
70434;BME280;57876;47.792;12.960;2023-07-20T08:35:44;96729.06;;;18.97;64.97
70434;BME280;57876;47.792;12.960;2023-07-20T08:38:09;96732.25;;;18.99;64.84
70434;BME280;57876;47.792;12.960;2023-07-20T08:40:38;96749.41;;;19.08;64.65
70434;BME280;57876;47.792;12.960;2023-07-20T08:43:03;96720.50;;;18.86;64.80
70434;BME280;57876;47.792;12.960;2023-07-20T08:45:28;96743.13;;;19.07;64.68
70434;BME280;57876;47.792;12.960;2023-07-20T08:47:58;96730.97;;;18.96;64.59
70434;BME280;57876;47.792;12.960;2023-07-20T08:50:25;96747.00;;;19.06;64.74
70434;BME280;57876;47.792;12.960;2023-07-20T08:52:52;96746.09;;;19.02;64.68
70434;BME280;57876;47.792;12.960;2023-07-20T08:55:16;96711.91;;;18.87;64.72
70434;BME280;57876;47.792;12.960;2023-07-20T09:03:05;96752.94;;;19.08;64.88
70434;BME280;57876;47.792;12.960;2023-07-20T09:05:29;96741.97;;;19.08;64.90
70434;BME280;57876;47.792;12.960;2023-07-20T09:07:54;96738.78;;;19.06;64.97
70434;BME280;57876;47.792;12.960;2023-07-20T09:10:24;96741.50;;;19.06;65.32
70434;BME280;57876;47.792;12.960;2023-07-20T09:12:49;96750.56;;;19.07;65.27
70434;BME280;57876;47.792;12.960;2023-07-20T09:15:14;96747.00;;;19.06;65.16
70434;BME280;57876;47.792;12.960;2023-07-20T09:17:38;96742.66;;;19.05;65.00
70434;BME280;57876;47.792;12.960;2023-07-20T09:20:07;96746.19;;;19.06;65.41
70434;BME280;57876;47.792;12.960;2023-07-20T09:22:34;96735.13;;;19.02;65.08
70434;BME280;57876;47.792;12.960;2023-07-20T09:24:59;96738.34;;;19.04;65.21
70434;BME280;57876;47.792;12.960;2023-07-20T09:27:40;96734.44;;;19.05;65.40
70434;BME280;57876;47.792;12.960;2023-07-20T09:30:06;96741.06;;;19.04;65.51
70434;BME280;57876;47.792;12.960;2023-07-20T09:32:38;96736.72;;;19.03;65.33
70434;BME280;57876;47.792;12.960;2023-07-20T09:35:03;96741.06;;;19.04;65.34
70434;BME280;57876;47.792;12.960;2023-07-20T09:37:28;96729.66;;;19.02;65.55
70434;BME280;57876;47.792;12.960;2023-07-20T09:39:52;96736.72;;;19.03;65.54
70434;BME280;57876;47.792;12.960;2023-07-20T09:42:17;96732.38;;;19.02;65.49
70434;BME280;57876;47.792;12.960;2023-07-20T09:44:45;96735.59;;;19.04;65.55
70434;BME280;57876;47.792;12.960;2023-07-20T09:47:10;96728.03;;;19.01;65.35
70434;BME280;57876;47.792;12.960;2023-07-20T09:49:41;96724.63;;;19.04;65.48
70434;BME280;57876;47.792;12.960;2023-07-20T09:52:07;96728.84;;;19.02;65.50
70434;BME280;57876;47.792;12.960;2023-07-20T09:54:32;96725.75;;;19.03;65.85
70434;BME280;57876;47.792;12.960;2023-07-20T09:56:58;96723.38;;;19.02;65.61
70434;BME280;57876;47.792;12.960;2023-07-20T09:59:22;96717.75;;;18.98;65.50
70434;BME280;57876;47.792;12.960;2023-07-20T10:01:48;96714.78;;;19.03;65.33
70434;BME280;57876;47.792;12.960;2023-07-20T12:57:04;96595.78;;;18.92;66.13
70434;BME280;57876;47.792;12.960;2023-07-20T12:59:29;96597.03;;;18.95;65.99
70434;BME280;57876;47.792;12.960;2023-07-20T13:01:53;96591.56;;;18.95;65.85
70434;BME280;57876;47.792;12.960;2023-07-20T13:04:18;96601.03;;;18.97;65.91
70434;BME280;57876;47.792;12.960;2023-07-20T13:06:42;96592.81;;;18.97;65.92
70434;BME280;57876;47.792;12.960;2023-07-20T13:09:06;96593.28;;;18.99;65.96
70434;BME280;57876;47.792;12.960;2023-07-20T13:11:31;96588.59;;;19.00;65.87
70434;BME280;57876;47.792;12.960;2023-07-20T13:13:56;96580.38;;;19.00;65.62
70434;BME280;57876;47.792;12.960;2023-07-20T13:16:20;96576.84;;;18.99;65.38
70434;BME280;57876;47.792;12.960;2023-07-20T13:18:45;96573.75;;;19.01;65.52
70434;BME280;57876;47.792;12.960;2023-07-20T13:21:09;96576.00;;;18.99;65.47
70434;BME280;57876;47.792;12.960;2023-07-20T13:23:36;96578.88;;;19.02;65.56
70434;BME280;57876;47.792;12.960;2023-07-20T13:26:02;96574.53;;;19.01;65.55
70434;BME280;57876;47.792;12.960;2023-07-20T13:28:29;96572.63;;;19.02;65.26
70434;BME280;57876;47.792;12.960;2023-07-20T13:30:54;96574.53;;;19.01;65.46
70434;BME280;57876;47.792;12.960;2023-07-20T13:33:19;96578.09;;;19.02;65.23
70434;BME280;57876;47.792;12.960;2023-07-20T13:35:43;96570.19;;;19.00;65.21
70434;BME280;57876;47.792;12.960;2023-07-20T13:38:07;96572.16;;;19.00;65.32
70434;BME280;57876;47.792;12.960;2023-07-20T13:40:32;96575.34;;;19.02;65.42
70434;BME280;57876;47.792;12.960;2023-07-20T13:42:56;96572.94;;;19.00;65.26
70434;BME280;57876;47.792;12.960;2023-07-20T13:45:21;96571.78;;;19.01;65.12
70434;BME280;57876;47.792;12.960;2023-07-20T13:47:45;96560.81;;;19.01;64.86
70434;BME280;57876;47.792;12.960;2023-07-20T13:50:10;96573.41;;;19.02;65.08
70434;BME280;57876;47.792;12.960;2023-07-20T13:52:35;96565.19;;;19.02;64.81
70434;BME280;57876;47.792;12.960;2023-07-20T13:55:01;96566.75;;;19.03;65.05
70434;BME280;57876;47.792;12.960;2023-07-20T13:57:25;96559.69;;;19.02;65.12
70434;BME280;57876;47.792;12.960;2023-07-20T13:59:50;96560.81;;;19.01;64.90
70434;BME280;57876;47.792;12.960;2023-07-20T14:02:14;96548.28;;;19.00;64.85
70434;BME280;57876;47.792;12.960;2023-07-20T14:04:39;96547.94;;;19.02;64.82
70434;BME280;57876;47.792;12.960;2023-07-20T14:07:04;96547.94;;;19.02;64.76
70434;BME280;57876;47.792;12.960;2023-07-20T14:09:28;96549.88;;;19.01;64.95
70434;BME280;57876;47.792;12.960;2023-07-20T14:11:53;96552.59;;;19.01;64.71
70434;BME280;57876;47.792;12.960;2023-07-20T14:14:17;96550.69;;;19.02;64.61
70434;BME280;57876;47.792;12.960;2023-07-20T14:16:41;96547.59;;;19.03;64.95
70434;BME280;57876;47.792;12.960;2023-07-20T14:19:06;96540.50;;;19.02;64.58
70434;BME280;57876;47.792;12.960;2023-07-20T14:21:31;96547.13;;;19.01;64.66
70434;BME280;57876;47.792;12.960;2023-07-20T14:23:55;96531.84;;;19.00;64.72
70434;BME280;57876;47.792;12.960;2023-07-20T14:26:20;96534.66;;;19.04;64.70
70434;BME280;57876;47.792;12.960;2023-07-20T14:28:44;96531.13;;;19.03;64.68
70434;BME280;57876;47.792;12.960;2023-07-20T14:31:09;96535.50;;;19.04;64.79
70434;BME280;57876;47.792;12.960;2023-07-20T14:33:33;96536.53;;;19.00;64.70
70434;BME280;57876;47.792;12.960;2023-07-20T14:35:58;96535.81;;;19.03;64.41
70434;BME280;57876;47.792;12.960;2023-07-20T14:38:23;96533.09;;;19.03;64.55
70434;BME280;57876;47.792;12.960;2023-07-20T14:40:47;96536.63;;;19.03;64.80
70434;BME280;57876;47.792;12.960;2023-07-20T14:43:12;96531.94;;;19.04;64.57
70434;BME280;57876;47.792;12.960;2023-07-20T14:45:38;96529.56;;;19.02;64.41
70434;BME280;57876;47.792;12.960;2023-07-20T14:48:02;96532.75;;;19.04;64.49
70434;BME280;57876;47.792;12.960;2023-07-20T14:50:27;96530.81;;;19.05;64.51
70434;BME280;57876;47.792;12.960;2023-07-20T14:52:51;96530.81;;;19.05;64.34
70434;BME280;57876;47.792;12.960;2023-07-20T14:55:16;96521.78;;;19.04;64.71
70434;BME280;57876;47.792;12.960;2023-07-20T14:57:41;96519.03;;;19.04;64.18
70434;BME280;57876;47.792;12.960;2023-07-20T15:00:06;96517.44;;;19.03;64.42
70434;BME280;57876;47.792;12.960;2023-07-20T15:02:34;96519.84;;;19.05;64.34
70434;BME280;57876;47.792;12.960;2023-07-20T15:04:59;96508.09;;;19.04;64.31
70434;BME280;57876;47.792;12.960;2023-07-20T15:07:24;96512.75;;;19.04;64.26
70434;BME280;57876;47.792;12.960;2023-07-20T15:09:48;96513.56;;;19.04;64.31
70434;BME280;57876;47.792;12.960;2023-07-20T15:12:12;96514.00;;;19.06;64.17
70434;BME280;57876;47.792;12.960;2023-07-20T15:14:41;96516.72;;;19.06;64.48
70434;BME280;57876;47.792;12.960;2023-07-20T15:17:06;96509.66;;;19.05;64.39
70434;BME280;57876;47.792;12.960;2023-07-20T15:19:31;96508.88;;;19.05;64.22
70434;BME280;57876;47.792;12.960;2023-07-20T15:21:55;96497.91;;;19.05;64.07
70434;BME280;57876;47.792;12.960;2023-07-20T15:24:20;96488.44;;;19.02;64.22
70434;BME280;57876;47.792;12.960;2023-07-20T15:26:44;96497.91;;;19.05;64.08
70434;BME280;57876;47.792;12.960;2023-07-20T15:29:09;96490.81;;;19.04;64.20
70434;BME280;57876;47.792;12.960;2023-07-20T15:31:33;96490.81;;;19.04;64.17
70434;BME280;57876;47.792;12.960;2023-07-20T15:33:58;96488.88;;;19.04;64.16
70434;BME280;57876;47.792;12.960;2023-07-20T15:36:22;96486.16;;;19.04;63.99
70434;BME280;57876;47.792;12.960;2023-07-20T15:38:46;96486.16;;;19.04;64.21
70434;BME280;57876;47.792;12.960;2023-07-20T15:41:11;96485.34;;;19.04;64.08
70434;BME280;57876;47.792;12.960;2023-07-20T15:43:36;96485.00;;;19.05;64.14
70434;BME280;57876;47.792;12.960;2023-07-20T15:46:07;96486.16;;;19.04;64.04
70434;BME280;57876;47.792;12.960;2023-07-20T15:48:46;96486.16;;;19.04;64.07